Garden Grove, IA (50103)

8:07 PM CST on February 13, 2016 (GMT -0600)
Lamoni Municipal | | Change Station
CLOSE
Current Station
Airport
Location: Lamoni,
Elevation: 1132 ft
Nearby Weather Stations

Elev 1132 ft 40.63 °N, 93.90 °W | Updated 14 minutes ago

Overcast
Overcast
17 °F
Feels Like 6 °F
N
9
Wind Variable Wind from ESE

Today
High -- | Low -- °F
--% Chance of Precip.
Yesterday
High -- | Low -- °F
Precip. -- in
Pressure 30.38 in
Visibility 10.0 miles
Clouds Overcast 5000 ft
Windchill 6 °F
Dew Point 4 °F
Humidity 56%
Rainfall 0.00 in
Snow Depth Not available.
7:11 AM 5:46 PM
Waxing Crescent, 36% visible
METAR KLWD 140153Z AUTO 11008KT 10SM OVC050 M08/M16 A3031 RMK AO2 SLP288 T10831156
Pressure 30.38 in
Visibility 10.0 miles
Clouds Overcast 5000 ft
Windchill 6 °F
Dew Point 4 °F
Humidity 56%
Rainfall 0.00 in
Snow Depth Not available.
7:11 AM 5:46 PM
Waxing Crescent, 36% visible
METAR KLWD 140153Z AUTO 11008KT 10SM OVC050 M08/M16 A3031 RMK AO2 SLP288 T10831156

10-Day Weather Forecast

Almanac

Astronomy

Feb. 13, 2016 Rise Set
Actual Time
Civil Twilight
Nautical Twilight
Astronomical Twilight
Moon
Length of Visible Light
Length of Day
Tomorrow will be .
, % of the Moon is Illuminated

Today's Extremes

State Highs State Lows

Community

WunderPhotos

Upload Photos

1,892,725 photos uploaded!

WunderBlog® & News

Nearby

Air Quality

  Air Quality AQ Index Pollutant
Not available.

Snow Depth

Station Depth Elevation

Earthquake Activity

City Distance Mag. Time & Date
Minimum magnitude displayed is 2.5.

Coastal Water Temperatures

Place Temperature

Stations

Nearby Weather Stations

Station Location Temp. Windchill Dew Point Humidity Wind Precip. Elev Updated Type
                   

Watches & Warnings

There are currently no watches in effect.